Time;durP1;ratioP1;P1;durP2;ratioP2;P2;SDS_P1;SDS_P2;PMS_P1;PMS_P2;Temp;Humidity;BMP_temperature;BMP_pressure;BME280_temperature;BME280_humidity;BME280_pressure;Samples;Min_cycle;Max_cycle;Signal;HPM_P1;HPM_P2
2022/09/23 00:01:10;;;;;;;35.35;23.80;;;;;;;21.83;64.08;100448.97;6184027;23;20713;-83
2022/09/23 00:03:46;;;;;;;68.05;28.38;;;;;;;22.08;64.27;100483.00;6182562;23;20029;-83
2022/09/23 00:06:21;;;;;;;39.70;27.23;;;;;;;21.80;64.27;100432.63;6182377;23;20029;-83
2022/09/23 00:08:49;;;;;;;31.88;25.38;;;;;;;21.73;64.09;100423.88;6185487;23;20460;-83
2022/09/23 00:11:19;;;;;;;33.45;24.73;;;;;;;22.04;64.40;100470.69;6181891;23;20025;-84
2022/09/23 00:13:48;;;;;;;37.10;27.70;;;;;;;22.09;64.34;100474.13;6184664;23;20025;-83
2022/09/23 00:16:19;;;;;;;36.45;25.30;;;;;;;21.89;64.01;100449.56;6183034;23;20029;-84
2022/09/23 00:18:48;;;;;;;30.55;25.35;;;;;;;21.90;63.94;100443.50;6185159;23;20468;-83
2022/09/23 00:21:15;;;;;;;34.65;25.98;;;;;;;21.93;64.14;100425.72;6183245;23;20024;-83
2022/09/23 00:23:42;;;;;;;29.65;23.60;;;;;;;22.05;64.17;100426.84;6182264;23;20031;-84
2022/09/23 00:26:12;;;;;;;36.80;25.33;;;;;;;22.27;63.65;100466.16;6183975;23;20024;-83
2022/09/23 00:28:39;;;;;;;30.58;23.92;;;;;;;21.96;64.10;100436.38;6181292;23;20129;-84
2022/09/23 00:31:26;;;;;;;34.05;24.42;;;;;;;22.03;64.13;100457.69;6179693;23;20352;-84
2022/09/23 00:33:58;;;;;;;37.75;24.40;;;;;;;22.10;63.97;100463.56;6182904;23;20021;-84
2022/09/23 00:36:27;;;;;;;28.38;24.50;;;;;;;21.95;63.94;100451.78;6185048;23;20054;-83
2022/09/23 00:38:54;;;;;;;36.40;25.15;;;;;;;22.24;63.98;100490.44;6183189;23;20382;-83
2022/09/23 00:41:21;;;;;;;30.63;25.17;;;;;;;22.23;63.83;100494.50;6182652;23;20025;-83
2022/09/23 00:43:51;;;;;;;33.10;24.58;;;;;;;22.29;63.85;100483.69;6185577;23;20021;-82
2022/09/23 00:46:27;;;;;;;33.70;27.25;;;;;;;22.27;63.66;100480.38;6184348;23;20021;-83
2022/09/23 00:49:04;;;;;;;32.70;23.77;;;;;;;22.24;63.89;100483.94;6184203;23;20384;-84
2022/09/23 00:51:35;;;;;;;28.90;22.73;;;;;;;22.27;63.55;100473.84;6183703;23;20483;-84
2022/09/23 00:54:05;;;;;;;28.92;22.92;;;;;;;22.10;63.79;100453.03;6183157;23;20020;-84
2022/09/23 00:56:34;;;;;;;27.63;22.02;;;;;;;22.24;63.83;100481.09;6183044;23;20031;-83
2022/09/23 00:59:02;;;;;;;31.85;20.92;;;;;;;21.82;63.84;100413.19;6183844;23;20095;-83
2022/09/23 01:01:29;;;;;;;30.55;20.70;;;;;;;22.21;63.72;100478.97;6183707;23;20036;-83
2022/09/23 01:03:56;;;;;;;20.35;18.17;;;;;;;21.82;63.55;100412.38;6182335;23;20021;-83
2022/09/23 01:06:23;;;;;;;22.75;18.70;;;;;;;22.27;63.31;100479.53;6184292;23;20028;-83
2022/09/23 01:08:51;;;;;;;24.60;19.98;;;;;;;22.18;62.67;100454.91;6184902;23;20028;-82
2022/09/23 01:11:44;;;;;;;21.77;18.90;;;;;;;22.22;63.02;100472.06;6183351;23;20491;-84
2022/09/23 01:14:37;;;;;;;20.80;18.67;;;;;;;22.23;62.95;100483.13;6184072;23;20464;-83
2022/09/23 01:17:03;;;;;;;23.77;18.02;;;;;;;22.27;62.80;100480.38;6181294;23;20631;-83
2022/09/23 01:19:49;;;;;;;21.42;17.42;;;;;;;22.27;62.68;100476.69;6183599;23;20105;-83
2022/09/23 01:22:31;;;;;;;19.15;16.35;;;;;;;22.18;62.47;100477.66;6180553;23;20017;-83
2022/09/23 01:25:22;;;;;;;21.05;17.92;;;;;;;22.13;62.83;100463.69;6183657;23;20032;-83
2022/09/23 01:28:17;;;;;;;21.02;17.67;;;;;;;22.13;62.97;100477.09;6184220;23;20021;-83
2022/09/23 01:31:00;;;;;;;22.85;18.05;;;;;;;22.16;62.74;100477.22;6182902;23;20032;-83
2022/09/23 01:33:36;;;;;;;19.75;17.08;;;;;;;22.17;62.55;100461.78;6183927;23;20017;-82
2022/09/23 01:36:09;;;;;;;19.83;17.40;;;;;;;22.16;62.73;100479.25;6182379;23;20021;-83
2022/09/23 01:38:39;;;;;;;22.55;17.17;;;;;;;22.13;62.67;100475.06;6182879;23;20024;-83
2022/09/23 01:41:24;;;;;;;;;;;;;;;21.98;62.86;100470.13;6184782;23;20467;-83
2022/09/23 01:44:02;;;;;;;23.20;18.05;;;;;;;22.13;62.71;100469.38;6184488;23;19916;-83
2022/09/23 01:46:41;;;;;;;19.35;17.42;;;;;;;21.90;62.43;100425.59;6181336;23;20025;-84
2022/09/23 01:49:18;;;;;;;19.17;16.85;;;;;;;22.16;62.66;100453.63;6180621;23;20021;-83
2022/09/23 01:52:06;;;;;;;22.17;18.42;;;;;;;21.97;62.26;100425.81;6181519;23;20032;-83
2022/09/23 01:54:49;;;;;;;23.35;18.50;;;;;;;21.88;62.35;100427.97;6183656;23;20028;-83
2022/09/23 01:57:48;;;;;;;20.83;18.73;;;;;;;21.97;62.11;100426.63;6207141;23;20024;-82
2022/09/23 02:00:17;;;;;;;20.27;18.10;;;;;;;21.97;62.45;100420.94;6132572;23;20024;-83
2022/09/23 02:02:51;;;;;;;21.63;17.95;;;;;;;21.87;62.27;100407.25;6213748;23;20095;-84
2022/09/23 02:05:38;;;;;;;23.17;18.13;;;;;;;22.11;62.19;100448.97;6214982;23;20027;-82
2022/09/23 02:08:16;;;;;;;19.25;17.27;;;;;;;21.97;62.04;100426.63;6187908;23;20104;-83
2022/09/23 02:10:48;;;;;;;21.70;17.55;;;;;;;21.82;62.38;100395.31;6212169;23;20044;-82
2022/09/23 02:13:38;;;;;;;21.70;17.05;;;;;;;21.84;62.28;100419.34;6186153;23;20024;-83
2022/09/23 02:16:15;;;;;;;21.60;19.15;;;;;;;21.99;61.91;100421.44;6196396;23;20025;-83
2022/09/23 02:19:03;;;;;;;20.73;16.58;;;;;;;21.84;62.15;100402.28;6212749;23;20052;-84
2022/09/23 02:21:39;;;;;;;19.90;17.73;;;;;;;22.00;62.06;100420.22;6186785;23;20017;-84
2022/09/23 02:24:28;;;;;;;19.27;17.30;;;;;;;21.98;62.10;100441.69;6213857;23;20025;-83
2022/09/23 02:27:05;;;;;;;18.77;17.00;;;;;;;21.75;62.23;100402.44;6186080;23;20027;-83
2022/09/23 02:29:44;;;;;;;21.73;18.48;;;;;;;21.96;61.89;100436.38;6187085;23;20017;-83
2022/09/23 02:32:37;;;;;;;19.60;17.50;;;;;;;21.94;61.87;100437.91;6186940;23;20047;-82
2022/09/23 02:35:07;;;;;;;22.02;17.40;;;;;;;21.89;61.91;100416.25;6208770;23;20131;-83
2022/09/23 02:37:51;;;;;;;22.08;18.17;;;;;;;21.56;61.61;100382.34;6214541;23;20033;-84
2022/09/23 02:40:22;;;;;;;19.58;17.48;;;;;;;21.55;61.80;100380.72;6187908;23;20016;-84
2022/09/23 02:43:13;;;;;;;22.63;20.42;;;;;;;21.80;61.95;100420.44;6214329;23;20047;-84
2022/09/23 02:45:40;;;;;;;21.13;17.55;;;;;;;21.64;61.68;100411.81;6213819;23;20059;-83
2022/09/23 02:48:17;;;;;;;23.38;18.80;;;;;;;21.64;61.58;100401.31;6214158;23;20029;-83
2022/09/23 02:50:46;;;;;;;21.33;18.08;;;;;;;21.61;62.02;100392.66;6214833;23;20012;-84
2022/09/23 02:53:16;;;;;;;20.70;18.30;;;;;;;21.48;61.76;100369.97;6187235;23;20023;-84
2022/09/23 02:55:44;;;;;;;26.20;18.25;;;;;;;21.62;61.69;100385.78;6213623;23;20016;-84
2022/09/23 02:58:12;;;;;;;22.95;17.83;;;;;;;21.47;61.72;100356.09;6189407;23;20020;-82
2022/09/23 03:01:04;;;;;;;20.90;18.73;;;;;;;21.73;61.72;100410.50;6215323;23;20012;-83
2022/09/23 03:04:03;;;;;;;23.42;17.02;;;;;;;21.58;61.57;100390.53;6189965;23;20036;-83
2022/09/23 03:06:59;;;;;;;19.52;17.50;;;;;;;21.66;61.66;100398.91;6217296;23;20027;-83
2022/09/23 03:09:51;;;;;;;21.77;18.73;;;;;;;21.84;61.64;100427.03;6190206;23;20023;-83
2022/09/23 03:12:24;;;;;;;20.27;17.92;;;;;;;21.81;61.46;100431.41;6215926;23;20027;-83
2022/09/23 03:15:00;;;;;;;21.98;18.02;;;;;;;21.60;61.45;100402.34;6220139;23;20031;-83
2022/09/23 03:17:46;;;;;;;21.20;17.85;;;;;;;21.69;61.87;100414.41;6219675;23;20321;-83
2022/09/23 03:20:45;;;;;;;20.92;17.85;;;;;;;21.65;61.76;100427.69;6192318;23;20021;-83
2022/09/23 03:23:14;;;;;;;23.65;17.48;;;;;;;21.53;61.96;100408.66;6217666;23;20035;-84
2022/09/23 03:25:46;;;;;;;20.55;17.40;;;;;;;21.67;61.97;100433.84;6190394;23;20483;-83
2022/09/23 03:28:16;;;;;;;21.10;17.88;;;;;;;21.57;62.25;100422.97;6189280;23;20028;-84
2022/09/23 03:30:44;;;;;;;20.08;17.05;;;;;;;21.40;62.44;100398.47;6214476;23;20444;-84
2022/09/23 03:33:15;;;;;;;18.98;16.85;;;;;;;21.40;62.23;100387.97;6215228;23;20020;-83
2022/09/23 03:38:47;;;;;;;24.90;18.20;;;;;;;21.22;62.56;100360.97;6216157;23;20491;-84
2022/09/23 03:41:19;;;;;;;18.65;16.65;;;;;;;21.65;62.82;100422.03;6215619;23;20448;-84
2022/09/23 03:43:46;;;;;;;22.20;16.52;;;;;;;21.51;62.88;100406.19;6215602;23;20027;-84
2022/09/23 03:46:15;;;;;;;20.08;17.90;;;;;;;21.48;62.77;100397.53;6212410;23;20021;-84
2022/09/23 03:48:43;;;;;;;27.73;17.88;;;;;;;21.72;62.86;100436.44;6214932;23;20507;-84
2022/09/23 03:51:21;;;;;;;24.63;17.20;;;;;;;21.41;62.42;100372.56;6189019;23;20024;-83
2022/09/23 03:53:51;;;;;;;24.60;18.33;;;;;;;21.45;62.69;100399.06;6190238;23;20027;-84
2022/09/23 03:56:18;;;;;;;29.17;17.95;;;;;;;21.70;62.57;100444.50;6189685;23;20020;-83
2022/09/23 03:58:45;;;;;;;20.80;16.35;;;;;;;21.67;62.73;100436.69;6220084;23;20024;-84
2022/09/23 04:01:13;;;;;;;19.40;17.38;;;;;;;21.35;63.00;100382.53;6217491;23;20020;-84
2022/09/23 04:03:40;;;;;;;18.65;16.25;;;;;;;21.20;62.68;100360.53;6192982;23;20020;-84
2022/09/23 04:06:08;;;;;;;18.80;16.80;;;;;;;21.47;62.92;100412.91;6193567;23;20474;-83
2022/09/23 04:08:35;;;;;;;19.70;17.15;;;;;;;21.04;62.87;100352.72;6195523;23;20029;-83
2022/09/23 04:11:03;;;;;;;24.15;17.13;;;;;;;21.41;62.98;100403.81;6171316;23;20021;-84
2022/09/23 04:13:30;;;;;;;20.05;16.77;;;;;;;21.64;62.95;100440.22;6219085;23;20030;-82
2022/09/23 04:15:57;;;;;;;25.30;17.38;;;;;;;21.46;62.94;100426.28;6187319;23;20053;-83
2022/09/23 04:18:24;;;;;;;23.33;17.05;;;;;;;21.49;63.13;100424.75;6189142;23;20028;-83
2022/09/23 04:20:56;;;;;;;20.85;17.20;;;;;;;21.61;62.78;100429.59;6188881;23;20016;-83
2022/09/23 04:23:24;;;;;;;19.98;16.25;;;;;;;21.59;62.89;100429.13;6188384;23;20356;-83
2022/09/23 04:25:52;;;;;;;18.55;16.52;;;;;;;21.65;62.86;100439.06;6214612;23;20028;-82
2022/09/23 04:28:19;;;;;;;19.60;16.10;;;;;;;21.57;62.91;100420.13;6188209;23;20032;-83
2022/09/23 04:30:47;;;;;;;17.20;15.35;;;;;;;21.52;63.11;100427.72;6187771;23;20027;-84
2022/09/23 04:33:15;;;;;;;19.70;16.60;;;;;;;21.53;62.88;100429.34;6186498;23;20200;-82
2022/09/23 04:35:42;;;;;;;23.58;17.80;;;;;;;21.60;63.10;100448.66;6187079;23;20105;-83
2022/09/23 04:38:15;;;;;;;19.00;17.20;;;;;;;21.66;63.04;100443.56;6188556;23;20020;-83
2022/09/23 04:40:44;;;;;;;20.98;18.00;;;;;;;21.43;62.95;100424.16;6188819;23;20363;-83
2022/09/23 04:43:12;;;;;;;19.05;17.25;;;;;;;21.51;62.82;100437.44;6187938;23;20083;-83
2022/09/23 04:45:39;;;;;;;20.05;17.80;;;;;;;21.56;63.26;100429.84;6187232;23;20060;-84
2022/09/23 04:48:08;;;;;;;22.20;18.85;;;;;;;21.59;62.68;100426.28;6213018;23;20025;-84
2022/09/23 04:50:36;;;;;;;18.05;15.93;;;;;;;21.72;62.59;100442.13;6214807;23;20464;-85
2022/09/23 04:53:04;;;;;;;21.83;17.80;;;;;;;21.66;62.68;100432.19;6215021;23;20020;-83
2022/09/23 04:55:31;;;;;;;21.38;17.13;;;;;;;21.43;62.10;100395.75;6212524;23;20484;-84
2022/09/23 04:57:58;;;;;;;21.00;18.40;;;;;;;21.72;62.19;100454.31;6188322;23;20021;-84
2022/09/23 05:00:25;;;;;;;24.02;18.95;;;;;;;21.65;62.49;100444.75;6186965;23;20523;-84
2022/09/23 05:02:52;;;;;;;18.85;16.85;;;;;;;21.58;62.31;100427.47;6213480;23;20024;-84
2022/09/23 05:05:22;;;;;;;21.80;16.67;;;;;;;21.63;62.57;100432.91;6188042;23;20341;-84
2022/09/23 05:07:50;;;;;;;21.33;17.02;;;;;;;21.52;62.47;100422.03;6213294;23;20027;-83
2022/09/23 05:10:17;;;;;;;24.85;19.15;;;;;;;;;;6188950;23;20020;-83
2022/09/23 05:12:44;;;;;;;20.23;18.13;;;;;;;21.51;62.81;100436.59;6214432;23;20020;-83
2022/09/23 05:15:11;;;;;;;21.95;17.70;;;;;;;21.63;62.30;100427.22;6215183;23;20028;-82
2022/09/23 05:17:38;;;;;;;19.08;15.80;;;;;;;21.84;62.30;100461.97;6187850;23;20020;-82
2022/09/23 05:20:06;;;;;;;19.33;17.30;;;;;;;21.30;62.62;100385.59;6161482;23;20468;-83
2022/09/23 05:22:34;;;;;;;22.75;16.73;;;;;;;21.71;62.90;100469.72;6213944;23;20023;-83
2022/09/23 05:25:11;;;;;;;20.30;18.20;;;;;;;21.55;62.53;100448.91;6191068;23;20517;-82
2022/09/23 05:27:37;;;;;;;24.42;19.33;;;;;;;21.59;62.48;100446.19;6188388;23;20095;-83
2022/09/23 05:30:05;;;;;;;19.58;17.63;;;;;;;21.54;62.43;100441.56;6187600;23;20021;-83
2022/09/23 05:32:32;;;;;;;20.95;18.77;;;;;;;21.67;62.38;100457.41;6186056;23;20025;-84
2022/09/23 05:34:59;;;;;;;20.58;18.10;;;;;;;21.37;62.51;100417.09;6214471;23;20025;-83
2022/09/23 05:37:26;;;;;;;21.40;17.45;;;;;;;21.48;62.18;100438.16;6213770;23;20451;-83
2022/09/23 05:39:53;;;;;;;20.40;17.50;;;;;;;21.65;62.59;100448.41;6187478;23;20021;-83
2022/09/23 05:42:20;;;;;;;19.35;17.27;;;;;;;21.60;62.20;100442.13;6188027;23;20356;-86
2022/09/23 05:44:47;;;;;;;22.38;18.17;;;;;;;21.18;62.17;100377.06;6214385;23;20099;-85
2022/09/23 05:47:14;;;;;;;26.10;18.23;;;;;;;21.32;61.95;100405.94;6185931;23;20016;-84
2022/09/23 05:49:41;;;;;;;24.55;17.67;;;;;;;21.61;61.81;100455.19;6185147;23;20341;-82
2022/09/23 05:52:25;;;;;;;21.55;16.95;;;;;;;21.69;61.69;100448.53;6212700;23;20112;-84
2022/09/23 05:54:52;;;;;;;21.05;16.40;;;;;;;21.42;61.56;100402.63;6187950;23;20021;-83
2022/09/23 05:57:20;;;;;;;23.55;18.90;;;;;;;21.71;61.41;100441.31;6213261;23;20332;-82
2022/09/23 05:59:47;;;;;;;20.02;17.08;;;;;;;21.58;61.51;100414.09;6214629;23;20020;-82
2022/09/23 06:02:14;;;;;;;19.35;16.15;;;;;;;21.67;61.41;100426.13;6188175;23;20023;-81
2022/09/23 06:04:41;;;;;;;23.50;16.13;;;;;;;21.69;61.01;100437.97;6185066;23;20032;-81
2022/09/23 06:07:09;;;;;;;21.42;16.00;;;;;;;21.45;60.97;100404.75;6184465;23;20047;-84
2022/09/23 06:09:36;;;;;;;19.30;17.25;;;;;;;21.59;61.15;100423.44;6187715;23;20104;-85
2022/09/23 06:12:03;;;;;;;22.52;20.30;;;;;;;21.83;60.83;100470.88;6190531;23;20020;-86
2022/09/23 06:14:30;;;;;;;18.05;16.15;;;;;;;21.62;60.79;100448.31;6192005;23;20023;-88
2022/09/23 06:16:57;;;;;;;24.02;17.45;;;;;;;21.45;60.88;100410.44;6217272;23;20027;-85
2022/09/23 06:19:24;;;;;;;21.25;16.85;;;;;;;21.85;60.57;100463.66;6192637;23;20031;-88
2022/09/23 06:21:51;;;;;;;22.55;19.98;;;;;;;21.36;60.63;100397.56;6191397;23;20019;-83
2022/09/23 06:24:18;;;;;;;20.55;16.98;;;;;;;21.81;60.47;100457.00;6214889;23;20020;-84
2022/09/23 06:26:51;;;;;;;20.60;18.38;;;;;;;21.74;60.21;100454.81;6189262;23;20112;-85
2022/09/23 06:29:18;;;;;;;21.95;17.95;;;;;;;21.84;60.23;100473.34;6186653;23;20037;-85
2022/09/23 06:31:45;;;;;;;22.55;18.17;;;;;;;21.59;60.34;100447.00;6188302;23;20032;-84
2022/09/23 06:34:12;;;;;;;26.10;19.83;;;;;;;21.21;60.43;100388.56;6214403;23;20024;-83
2022/09/23 06:36:43;;;;;;;25.05;18.42;;;;;;;21.56;60.56;100446.88;6191028;23;20075;-88
2022/09/23 06:39:15;;;;;;;20.65;17.48;;;;;;;21.58;60.37;100448.19;6189782;23;20031;-80
2022/09/23 06:41:43;;;;;;;24.98;22.42;;;;;;;21.28;60.53;100405.00;6216885;23;20021;-90
2022/09/23 06:44:12;;;;;;;29.70;20.53;;;;;;;21.47;60.54;100433.66;6188971;23;20096;-83
2022/09/23 06:46:39;;;;;;;29.65;20.05;;;;;;;21.57;60.22;100457.88;6186025;23;20021;-82
2022/09/23 06:49:06;;;;;;;29.85;20.48;;;;;;;21.60;60.64;100477.06;6189521;23;20063;-81
2022/09/23 06:51:33;;;;;;;21.00;18.27;;;;;;;21.45;60.78;100464.41;6215725;23;20027;-83
2022/09/23 06:54:00;;;;;;;20.27;17.52;;;;;;;21.34;60.66;100437.69;6216771;23;20029;-84
2022/09/23 06:56:27;;;;;;;20.73;17.20;;;;;;;21.61;60.56;100486.44;6216293;23;20033;-84
2022/09/23 06:58:58;;;;;;;22.90;20.50;;;;;;;21.52;60.71;100473.19;6190221;23;20028;-83
2022/09/23 07:01:25;;;;;;;21.88;18.15;;;;;;;21.69;60.62;100499.69;6216774;23;20021;-84
2022/09/23 07:03:53;;;;;;;21.90;19.00;;;;;;;21.71;61.25;100508.69;6189768;23;20055;-84
2022/09/23 07:06:19;;;;;;;21.55;16.88;;;;;;;21.68;61.08;100509.41;6213559;23;20406;-83
2022/09/23 07:08:47;;;;;;;22.15;18.30;;;;;;;21.81;61.19;100519.53;6214350;23;20021;-83
2022/09/23 07:11:15;;;;;;;30.02;21.75;;;;;;;21.82;61.04;100526.91;6213877;23;20017;-83
2022/09/23 07:13:42;;;;;;;21.52;18.77;;;;;;;21.86;61.05;100538.38;6190573;23;20027;-83
2022/09/23 07:16:10;;;;;;;21.20;19.02;;;;;;;21.90;61.11;100539.31;6190796;23;20059;-86
2022/09/23 07:18:38;;;;;;;20.10;18.10;;;;;;;21.51;60.81;100474.38;6214458;23;20024;-85
2022/09/23 07:21:07;;;;;;;22.88;20.50;;;;;;;21.91;60.33;100513.38;6214137;23;20017;-82
2022/09/23 07:23:36;;;;;;;24.48;17.60;;;;;;;21.98;60.62;100513.63;6189946;23;20020;-84
2022/09/23 07:26:03;;;;;;;21.90;18.60;;;;;;;22.10;60.69;100531.84;6190636;23;20016;-83
2022/09/23 07:28:31;;;;;;;24.90;22.10;;;;;;;22.14;60.53;100544.97;6216275;23;20025;-84
2022/09/23 07:31:12;;;;;;;25.50;18.40;;;;;;;21.86;60.37;100475.84;6216109;23;20035;-84
2022/09/23 07:33:42;;;;;;;22.60;18.70;;;;;;;22.34;60.34;100548.84;6189245;23;20501;-83
2022/09/23 07:36:12;;;;;;;22.05;19.45;;;;;;;22.37;60.11;100547.31;6216442;23;20115;-82
2022/09/23 07:38:40;;;;;;;26.30;20.65;;;;;;;22.11;59.74;100510.72;6189648;23;20021;-83
2022/09/23 07:41:13;;;;;;;20.20;18.02;;;;;;;22.42;59.70;100545.03;6215314;23;20013;-83
2022/09/23 07:43:40;;;;;;;20.95;18.23;;;;;;;22.28;59.74;100512.47;6188155;23;20098;-82
2022/09/23 07:46:10;;;;;;;22.30;18.33;;;;;;;22.42;59.75;100519.41;6216121;23;20025;-83
2022/09/23 07:48:39;;;;;;;21.75;17.85;;;;;;;22.71;59.58;100551.56;6189148;23;20111;-83
2022/09/23 07:51:22;;;;;;;21.73;19.02;;;;;;;22.84;59.16;100547.47;6215245;23;20017;-88
2022/09/23 07:53:51;;;;;;;24.05;16.73;;;;;;;22.94;58.89;100552.66;6219529;23;20021;-87
2022/09/23 07:56:19;;;;;;;22.02;19.10;;;;;;;22.97;58.66;100553.09;6190426;23;20359;-84
2022/09/23 07:59:07;;;;;;;19.98;16.98;;;;;;;22.85;58.46;100534.06;6188903;23;20029;-84
2022/09/23 08:01:37;;;;;;;30.77;20.58;;;;;;;22.85;57.98;100523.50;6215439;23;20087;-83
2022/09/23 08:04:21;;;;;;;19.40;17.25;;;;;;;23.05;58.26;100561.50;6190034;23;20032;-82
2022/09/23 08:06:54;;;;;;;23.33;17.88;;;;;;;22.89;58.29;100538.66;6216372;23;20047;-83
2022/09/23 08:09:22;;;;;;;;;;;;;;;22.87;58.75;100563.81;6217499;23;20035;-93
2022/09/23 08:11:49;;;;;;;21.95;19.70;;;;;;;22.74;58.40;100533.75;6219600;23;20327;-92
2022/09/23 08:14:17;;;;;;;21.42;17.58;;;;;;;22.77;58.41;100555.81;6194178;23;20183;-88
2022/09/23 08:16:45;;;;;;;22.70;20.38;;;;;;;22.56;58.76;100540.94;6216138;23;20028;-88
2022/09/23 08:19:14;;;;;;;28.90;19.33;;;;;;;22.66;58.75;100568.88;6217780;23;20072;-94
2022/09/23 08:21:42;;;;;;;20.98;17.90;;;;;;;22.64;58.96;100580.66;6193672;23;20020;-81
2022/09/23 08:24:15;;;;;;;22.63;20.13;;;;;;;22.62;58.53;100570.81;6215302;23;20021;-83
2022/09/23 08:26:43;;;;;;;27.33;21.33;;;;;;;22.67;58.60;100573.41;6189253;23;20483;-87
2022/09/23 08:29:15;;;;;;;19.75;17.25;;;;;;;22.76;58.87;100576.91;6189109;23;20027;-82
2022/09/23 08:31:42;;;;;;;25.85;18.42;;;;;;;22.57;58.75;100549.13;6216240;23;20044;-85
2022/09/23 08:34:09;;;;;;;24.35;19.05;;;;;;;22.53;58.63;100555.91;6189347;23;20028;-85
2022/09/23 08:36:37;;;;;;;19.88;17.85;;;;;;;22.70;59.12;100569.81;6225130;23;20020;-88
2022/09/23 08:39:05;;;;;;;22.02;17.77;;;;;;;22.68;58.91;100561.66;6218719;23;20028;-86
2022/09/23 08:41:48;;;;;;;21.52;18.60;;;;;;;22.37;59.12;100502.63;6216875;23;20027;-85
2022/09/23 08:44:25;;;;;;;19.92;16.33;;;;;;;23.08;58.95;100585.59;6218091;23;20058;-86
2022/09/23 08:47:01;;;;;;;22.90;18.90;;;;;;;23.14;58.94;100589.78;6190401;23;20024;-89
2022/09/23 08:49:38;;;;;;;24.38;18.05;;;;;;;23.29;58.46;100600.41;6187708;23;20039;-89
2022/09/23 08:52:23;;;;;;;19.85;17.85;;;;;;;22.43;58.54;100430.03;6190404;23;20036;-91
2022/09/23 08:54:50;;;;;;;20.88;18.55;;;;;;;24.19;57.78;100606.34;6219788;23;20025;-90
2022/09/23 08:57:37;;;;;;;24.63;19.20;;;;;;;25.01;56.51;100604.47;6169073;23;20344;-91
2022/09/23 09:00:05;;;;;;;18.33;16.63;;;;;;;25.25;55.10;100507.00;6195456;23;20019;-90
2022/09/23 09:02:35;;;;;;;21.50;19.52;;;;;;;26.68;53.81;100600.78;6216985;23;20020;-90
2022/09/23 09:05:08;;;;;;;18.42;16.60;;;;;;;27.46;51.96;100573.44;6214229;23;20025;-90
2022/09/23 09:07:39;;;;;;;17.33;15.63;;;;;;;28.20;49.87;100581.00;6215979;23;20024;-89
2022/09/23 09:10:08;;;;;;;17.10;15.65;;;;;;;28.80;49.15;100594.91;6195135;23;20068;-88
2022/09/23 09:12:41;;;;;;;20.55;16.88;;;;;;;28.40;48.32;100456.00;6198212;23;20063;-91
2022/09/23 09:15:12;;;;;;;22.02;19.80;;;;;;;29.81;47.06;100596.78;6202037;23;20025;-90
2022/09/23 09:17:47;;;;;;;17.55;16.00;;;;;;;29.90;45.66;100507.97;6200662;23;20099;-92
2022/09/23 09:20:15;;;;;;;15.38;13.95;;;;;;;31.04;45.02;100615.47;6194959;23;20025;-88
2022/09/23 09:22:51;;;;;;;16.87;15.37;;;;;;;31.10;44.35;100610.91;6194382;23;20016;-87
2022/09/23 09:25:24;;;;;;;18.25;16.45;;;;;;;31.32;42.88;100609.59;6193990;23;20024;-89
2022/09/23 09:27:59;;;;;;;16.38;14.98;;;;;;;31.23;42.67;100565.13;6194885;23;20100;-90
2022/09/23 09:30:27;;;;;;;17.70;14.52;;;;;;;31.73;41.92;100562.69;6218552;23;20020;-90
2022/09/23 09:33:00;;;;;;;15.45;13.95;;;;;;;32.23;40.77;100607.63;6195493;23;20021;-93
2022/09/23 09:35:39;;;;;;;16.70;15.10;;;;;;;31.92;40.71;100603.81;6193839;23;20027;-90
2022/09/23 09:38:07;;;;;;;14.82;13.73;;;;;;;31.72;41.14;100613.00;6189516;23;20020;-89
2022/09/23 09:40:34;;;;;;;14.95;13.65;;;;;;;31.93;40.42;100611.22;6217852;23;20499;-94
2022/09/23 09:43:03;;;;;;;15.88;14.32;;;;;;;32.48;39.39;100613.19;6220098;23;20030;-92
2022/09/23 09:45:54;;;;;;;14.73;13.38;;;;;;;32.91;39.26;100609.78;6191504;23;20107;-90
2022/09/23 09:48:38;;;;;;;15.93;14.52;;;;;;;33.11;38.75;100587.63;6189562;23;20021;-88
2022/09/23 09:51:20;;;;;;;15.10;13.83;;;;;;;33.66;37.99;100605.84;6190171;23;20028;-90
2022/09/23 09:53:50;;;;;;;15.25;13.95;;;;;;;33.59;37.28;100546.00;6190853;23;20024;-90
2022/09/23 09:56:26;;;;;;;14.63;13.43;;;;;;;33.38;36.42;100506.59;6191506;23;20028;-89
2022/09/23 09:58:57;;;;;;;13.88;12.68;;;;;;;33.79;36.84;100585.81;6190714;23;20104;-93
2022/09/23 10:01:30;;;;;;;14.20;13.00;;;;;;;33.62;36.22;100501.69;6189363;23;20107;-89
2022/09/23 10:04:00;;;;;;;14.55;13.10;;;;;;;34.29;35.63;100597.34;6191022;23;20046;-89
2022/09/23 10:06:31;;;;;;;14.50;13.10;;;;;;;33.33;36.14;100535.22;6188578;23;20021;-87
2022/09/23 10:09:04;;;;;;;16.23;14.68;;;;;;;33.19;36.53;100589.16;6189709;23;20024;-90
2022/09/23 10:11:32;;;;;;;20.05;18.45;;;;;;;32.67;36.96;100606.75;6219929;23;20020;-91
2022/09/23 10:14:01;;;;;;;17.15;15.57;;;;;;;32.53;37.02;100604.88;6191398;23;20025;-90
2022/09/23 10:16:30;;;;;;;15.65;14.25;;;;;;;32.39;37.02;100592.63;6216562;23;20027;-89
2022/09/23 10:19:10;;;;;;;;;;;;;;;32.29;39.02;100595.19;6216372;23;20032;-92
2022/09/23 10:21:38;;;;;;;18.30;16.70;;;;;;;32.52;37.13;100550.38;6217950;23;19923;-93
2022/09/23 10:24:06;;;;;;;18.40;16.08;;;;;;;32.51;36.03;100474.41;6191343;23;20025;-93
2022/09/23 10:26:42;;;;;;;17.27;15.57;;;;;;;32.19;36.11;100382.31;6194174;23;20103;-84
2022/09/23 10:29:47;;;;;;;16.38;15.10;;;;;;;33.91;35.53;100588.06;6190188;23;20021;-85
2022/09/23 10:32:24;;;;;;;16.20;14.75;;;;;;;34.22;35.03;100567.66;6155228;23;20043;-83
2022/09/23 10:35:12;;;;;;;15.57;14.23;;;;;;;34.80;34.64;100585.56;6190602;23;20024;-88
2022/09/23 10:37:43;;;;;;;17.05;15.45;;;;;;;34.93;34.37;100595.22;6197527;23;20044;-90
2022/09/23 10:46:38;;;;;;;14.88;13.68;;;;;;;33.41;34.98;100568.59;6221768;23;20048;-86
2022/09/23 10:49:27;;;;;;;16.50;15.10;;;;;;;33.19;35.06;100577.59;6205364;23;20025;-86
2022/09/23 10:51:54;;;;;;;16.85;15.57;;;;;;;33.63;34.91;100595.16;6228582;23;20027;-85
2022/09/23 10:54:50;;;;;;;16.33;14.73;;;;;;;33.98;34.77;100564.75;6232928;22;20044;-90
2022/09/23 10:57:42;;;;;;;17.05;15.63;;;;;;;34.25;34.18;100572.56;6216117;22;20064;-88
2022/09/23 11:00:36;;;;;;;15.55;14.15;;;;;;;34.30;34.39;100580.75;6209757;23;20031;-85
2022/09/23 11:03:34;;;;;;;14.82;13.40;;;;;;;34.33;34.04;100582.78;6192704;23;20038;-86
2022/09/23 11:06:19;;;;;;;16.95;15.15;;;;;;;33.99;33.93;100598.28;6236017;22;20021;-85
2022/09/23 11:09:04;;;;;;;16.98;15.52;;;;;;;33.96;34.16;100587.56;6238660;22;20004;-95
2022/09/23 11:11:43;;;;;;;15.27;13.77;;;;;;;34.09;33.97;100602.28;6241851;22;20039;-94
2022/09/23 11:14:18;;;;;;;16.83;15.07;;;;;;;33.81;33.86;100574.56;6241412;22;20043;-93
2022/09/23 11:17:13;;;;;;;14.90;13.60;;;;;;;33.93;34.45;100580.56;6220378;23;20029;-86
2022/09/23 11:20:13;;;;;;;15.15;13.85;;;;;;;33.87;34.52;100584.41;6221677;23;20051;-90
2022/09/23 11:23:08;;;;;;;16.67;13.95;;;;;;;33.40;34.75;100587.19;6216623;23;20057;-92
2022/09/23 11:26:02;;;;;;;16.85;15.15;;;;;;;33.57;34.89;100568.75;6156834;23;20072;-92
2022/09/23 11:28:54;;;;;;;17.20;15.50;;;;;;;34.27;34.02;100575.84;6229940;23;20020;-94
2022/09/23 11:31:30;;;;;;;15.70;14.30;;;;;;;34.07;34.15;100579.53;6195542;23;20044;-92
2022/09/23 11:34:24;;;;;;;16.10;14.70;;;;;;;34.04;34.23;100574.59;6192917;23;20024;-89
2022/09/23 11:37:01;;;;;;;18.38;16.88;;;;;;;34.34;33.92;100564.94;6217415;23;20019;-86
2022/09/23 11:39:40;;;;;;;17.00;15.60;;;;;;;34.89;32.95;100548.06;6190700;23;20506;-88
2022/09/23 11:42:16;;;;;;;17.35;15.90;;;;;;;35.10;33.00;100547.59;6216063;23;20481;-86
2022/09/23 11:44:57;;;;;;;14.77;13.38;;;;;;;35.16;32.96;100538.38;6216306;23;20063;-88
2022/09/23 11:47:35;;;;;;;16.15;14.70;;;;;;;35.25;31.79;100475.53;6189233;23;20072;-88
2022/09/23 11:50:39;;;;;;;16.73;15.32;;;;;;;36.27;31.80;100560.44;6189215;23;20103;-88